sim
Sign-in with your pilot id or email,
or register
Callsign
Passwort

Schedule Details

Flight Number: DLH1863 (2)
Departure: Milan Malpensa Airport (LIMC) at 19:20
Arrival: Munich Airport (EDDM) at 20:30
Route: Lufthansa Passenger Schedule. Enter filed route here before submitting Pirep.

Weather Information
Getting current METAR information for LIMC 222020Z VRB01KT 8000 BKN020 18/17 Q1013 NOSIG
Getting current METAR information for EDDM 222020Z VRB02KT CAVOK 16/14 Q1010 NOSIG

Schedule Frequency

Route Map